createdAt,value
2022-10-05T00:02:32.731Z,4.45
2022-10-05T00:07:30.523Z,3.85
2022-10-05T00:12:30.107Z,4.97
2022-10-05T00:17:30.005Z,4.57
2022-10-05T00:22:52.349Z,4.53
2022-10-05T00:27:57.862Z,4.78
2022-10-05T00:32:59.440Z,5.22
2022-10-05T00:37:58.792Z,4.35
2022-10-05T00:43:17.536Z,4.65
2022-10-05T00:48:54.203Z,4.85
2022-10-05T00:54:00.517Z,5.90
2022-10-05T00:59:12.727Z,4.32
2022-10-05T01:04:32.154Z,4.97
2022-10-05T01:10:02.184Z,4.22
2022-10-05T01:15:33.666Z,4.32
2022-10-05T01:26:06.168Z,3.83
2022-10-05T01:31:32.724Z,4.47
2022-10-05T01:36:39.548Z,5.22
2022-10-05T01:41:39.521Z,4.40
2022-10-05T01:46:44.186Z,4.05
2022-10-05T01:52:07.320Z,3.67
2022-10-05T01:57:07.276Z,3.70
2022-10-05T02:02:11.366Z,3.35
2022-10-05T02:07:21.212Z,3.70
2022-10-05T02:12:21.648Z,3.60
2022-10-05T02:17:27.626Z,3.42
2022-10-05T02:22:48.430Z,3.03
2022-10-05T02:27:57.182Z,3.15
2022-10-05T02:33:28.249Z,3.75
2022-10-05T02:39:01.360Z,4.10
2022-10-05T02:44:22.877Z,5.00
2022-10-05T02:49:28.116Z,4.50
2022-10-05T02:55:00.965Z,3.97
2022-10-05T03:00:17.521Z,3.97
2022-10-05T03:05:55.158Z,3.28
2022-10-05T03:11:00.331Z,4.22
2022-10-05T03:16:06.357Z,5.20
2022-10-05T03:21:12.271Z,4.95
2022-10-05T03:26:32.670Z,5.18
2022-10-05T03:31:41.031Z,4.50
2022-10-05T03:37:03.158Z,4.45
2022-10-05T03:42:08.206Z,4.57
2022-10-05T03:47:20.390Z,3.92
2022-10-05T03:52:30.085Z,4.78
2022-10-05T03:57:33.598Z,4.72
2022-10-05T04:02:46.042Z,4.68
2022-10-05T04:08:06.854Z,4.72
2022-10-05T04:13:19.494Z,4.97
2022-10-05T04:18:59.581Z,4.18
2022-10-05T04:24:01.479Z,3.58
2022-10-05T04:29:30.149Z,4.07
2022-10-05T04:34:57.022Z,4.68
2022-10-05T04:40:06.725Z,4.13
2022-10-05T04:46:06.772Z,4.57
2022-10-05T04:51:53.547Z,4.40
2022-10-05T04:56:58.789Z,4.45
2022-10-05T05:02:19.954Z,4.93
2022-10-05T05:07:55.215Z,5.90
2022-10-05T05:13:08.991Z,8.05
2022-10-05T05:18:48.305Z,8.10
2022-10-05T05:24:05.265Z,6.38
2022-10-05T05:29:28.225Z,5.50
2022-10-05T05:34:36.372Z,5.38
2022-10-05T05:39:50.056Z,6.50
2022-10-05T05:44:58.143Z,6.47
2022-10-05T05:50:13.561Z,6.20
2022-10-05T05:55:30.598Z,6.82
2022-10-05T06:00:38.054Z,5.53
2022-10-05T06:06:04.455Z,4.45
2022-10-05T06:11:47.220Z,4.35
2022-10-05T06:17:05.442Z,4.20
2022-10-05T06:22:37.829Z,4.50
2022-10-05T06:27:37.439Z,4.63
2022-10-05T06:33:06.319Z,4.43
2022-10-05T06:38:40.915Z,5.38
2022-10-05T06:43:57.505Z,4.60
2022-10-05T06:49:03.825Z,4.30
2022-10-05T06:54:19.813Z,4.40
2022-10-05T06:59:20.422Z,4.00
2022-10-05T07:04:33.345Z,4.82
2022-10-05T07:09:48.637Z,4.07
2022-10-05T07:14:57.182Z,4.45
2022-10-05T07:20:20.265Z,4.15
2022-10-05T07:25:20.706Z,4.10
2022-10-05T07:30:18.430Z,4.72
2022-10-05T07:41:40.378Z,4.43
2022-10-05T07:46:49.995Z,3.70
2022-10-05T07:57:12.905Z,2.45
2022-10-05T08:02:33.329Z,2.28
2022-10-05T08:07:34.730Z,2.20
2022-10-05T08:12:40.307Z,2.65
2022-10-05T08:18:10.000Z,2.38
2022-10-05T08:23:33.365Z,2.17
2022-10-05T08:28:47.311Z,2.22
2022-10-05T08:34:03.860Z,2.00
2022-10-05T08:39:05.546Z,2.88
2022-10-05T08:44:51.301Z,2.53
2022-10-05T08:49:58.908Z,2.20
2022-10-05T08:55:27.454Z,1.75
2022-10-05T09:00:32.635Z,2.70
2022-10-05T09:05:51.698Z,4.25
2022-10-05T09:10:48.796Z,1.92
2022-10-05T09:15:49.009Z,2.10
2022-10-05T09:21:06.508Z,2.00
2022-10-05T09:26:27.567Z,2.28
2022-10-05T09:31:33.530Z,1.75
2022-10-05T09:37:08.817Z,1.73
2022-10-05T09:42:34.185Z,2.00
2022-10-05T09:47:46.438Z,1.65
2022-10-05T09:53:10.988Z,1.73
2022-10-05T09:58:37.144Z,1.42
2022-10-05T10:04:07.221Z,2.08
2022-10-05T10:09:42.151Z,1.80
2022-10-05T10:15:02.534Z,1.63
2022-10-05T10:20:09.466Z,1.80
2022-10-05T10:25:21.998Z,1.55
2022-10-05T10:30:47.930Z,1.80
2022-10-05T10:35:55.379Z,2.05
2022-10-05T10:41:14.314Z,1.73
2022-10-05T10:46:48.577Z,1.88
2022-10-05T10:52:08.849Z,1.60
2022-10-05T10:57:11.973Z,1.37
2022-10-05T11:02:48.265Z,1.52
2022-10-05T11:08:01.352Z,1.92
2022-10-05T11:13:25.050Z,1.48
2022-10-05T11:18:40.482Z,1.48
2022-10-05T11:24:04.100Z,2.20
2022-10-05T11:29:04.025Z,1.63
2022-10-05T11:39:40.827Z,1.85
2022-10-05T11:45:02.361Z,1.88
2022-10-05T11:50:20.643Z,1.83
2022-10-05T11:55:32.951Z,1.60
2022-10-05T12:00:50.363Z,1.88
2022-10-05T12:06:02.667Z,2.42
2022-10-05T12:11:37.955Z,2.13
2022-10-05T12:16:51.199Z,1.73
2022-10-05T12:22:25.880Z,1.50
2022-10-05T12:27:29.841Z,1.45
2022-10-05T12:33:08.346Z,1.83
2022-10-05T12:38:51.155Z,1.65
2022-10-05T12:44:08.255Z,1.80
2022-10-05T12:49:30.220Z,1.45
2022-10-05T12:54:42.232Z,1.42
2022-10-05T12:59:42.711Z,1.48
2022-10-05T13:05:09.829Z,1.92
2022-10-05T13:10:51.230Z,1.85
2022-10-05T13:21:13.278Z,1.50
2022-10-05T13:26:16.122Z,1.60
2022-10-05T13:31:27.031Z,1.80
2022-10-05T13:36:42.491Z,2.10
2022-10-05T13:41:56.773Z,1.63
2022-10-05T13:47:17.372Z,1.65
2022-10-05T13:58:08.398Z,1.40
2022-10-05T14:03:31.214Z,2.50
2022-10-05T14:08:46.388Z,1.80
2022-10-05T14:13:43.668Z,2.10
2022-10-05T14:19:06.427Z,2.15
2022-10-05T14:24:45.875Z,1.30
2022-10-05T14:29:44.151Z,1.58
2022-10-05T14:34:55.462Z,1.98
2022-10-05T14:39:57.825Z,1.90
2022-10-05T14:45:12.044Z,1.88
2022-10-05T14:50:21.499Z,1.38
2022-10-05T14:55:51.111Z,2.10
2022-10-05T15:01:14.888Z,1.80
2022-10-05T15:06:39.204Z,1.85
2022-10-05T15:11:51.384Z,1.73
2022-10-05T15:16:53.013Z,1.83
2022-10-05T15:22:11.874Z,2.22
2022-10-05T15:27:49.389Z,1.95
2022-10-05T15:33:05.379Z,1.70
2022-10-05T15:38:12.119Z,2.35
2022-10-05T15:43:17.179Z,2.20
2022-10-05T15:48:20.753Z,2.00
2022-10-05T15:53:25.545Z,2.28
2022-10-05T15:58:36.141Z,2.28
2022-10-05T16:03:49.570Z,2.42
2022-10-05T16:09:01.378Z,8.35
2022-10-05T16:14:14.247Z,12.43
2022-10-05T16:19:38.343Z,5.50
2022-10-05T16:24:49.419Z,4.10
2022-10-05T16:30:04.238Z,3.08
2022-10-05T16:35:01.485Z,5.03
2022-10-05T16:40:32.833Z,20.13
2022-10-05T16:45:59.649Z,9.55
2022-10-05T16:51:16.383Z,6.72
2022-10-05T16:56:21.417Z,5.63
2022-10-05T17:01:50.054Z,5.03
2022-10-05T17:07:02.144Z,4.88
2022-10-05T17:12:02.644Z,4.30
2022-10-05T17:17:21.480Z,4.03
2022-10-05T17:22:30.750Z,4.35
2022-10-05T17:27:55.549Z,5.00
2022-10-05T17:33:14.340Z,5.07
2022-10-05T17:38:41.805Z,4.50
2022-10-05T17:43:39.408Z,4.53
2022-10-05T17:48:38.773Z,5.55
2022-10-05T17:54:01.959Z,7.67
2022-10-05T17:59:02.224Z,7.07
2022-10-05T18:04:11.552Z,6.57
2022-10-05T18:09:17.139Z,7.00
2022-10-05T18:14:26.499Z,7.10
2022-10-05T18:19:24.374Z,6.80
2022-10-05T18:24:31.579Z,8.07
2022-10-05T18:29:55.963Z,8.27
2022-10-05T18:35:12.662Z,8.18
2022-10-05T18:40:37.266Z,6.85
2022-10-05T18:46:00.892Z,7.50
2022-10-05T18:51:28.579Z,5.80
2022-10-05T18:56:37.622Z,7.07
2022-10-05T19:01:46.828Z,6.70
2022-10-05T19:07:05.921Z,6.18
2022-10-05T19:12:06.029Z,6.10
2022-10-05T19:17:12.375Z,7.05
2022-10-05T19:22:12.660Z,6.40
2022-10-05T19:32:43.726Z,7.32
2022-10-05T19:38:20.906Z,7.75
2022-10-05T19:43:21.335Z,8.02
2022-10-05T19:48:36.232Z,9.60
2022-10-05T19:53:37.980Z,10.07
2022-10-05T19:58:40.035Z,9.25
2022-10-05T20:03:38.315Z,8.55
2022-10-05T20:08:44.352Z,7.43
2022-10-05T20:14:06.894Z,7.72
2022-10-05T20:19:56.332Z,8.13
2022-10-05T20:25:21.575Z,7.63
2022-10-05T20:30:24.219Z,7.13
2022-10-05T20:35:26.431Z,7.07
2022-10-05T20:40:23.919Z,7.32
2022-10-05T20:45:21.644Z,5.68
2022-10-05T20:50:20.327Z,5.45
2022-10-05T20:55:17.659Z,6.53
2022-10-05T21:00:15.029Z,6.45
2022-10-05T21:05:12.352Z,7.15
2022-10-05T21:10:10.018Z,6.95
2022-10-05T21:15:07.899Z,7.78
2022-10-05T21:20:05.463Z,7.32
2022-10-05T21:25:02.988Z,6.22
2022-10-05T21:30:00.736Z,7.05
2022-10-05T21:34:58.113Z,7.18
2022-10-05T21:39:55.298Z,6.53
2022-10-05T21:44:52.517Z,6.10
2022-10-05T21:49:49.846Z,6.50
2022-10-05T21:54:47.264Z,5.78
2022-10-05T21:59:44.868Z,7.70
2022-10-05T22:04:42.191Z,5.93
2022-10-05T22:09:39.430Z,5.57
2022-10-05T22:14:36.771Z,5.50
2022-10-05T22:19:33.956Z,5.35
2022-10-05T22:24:31.235Z,5.63
2022-10-05T22:29:28.999Z,6.22
2022-10-05T22:34:26.401Z,5.38
2022-10-05T22:39:23.640Z,5.93
2022-10-05T22:44:20.916Z,5.22
2022-10-05T22:49:18.341Z,4.82
2022-10-05T22:54:15.966Z,5.82
2022-10-05T22:59:13.371Z,5.25
2022-10-05T23:04:12.072Z,5.25
2022-10-05T23:09:09.250Z,5.95
2022-10-05T23:14:06.527Z,5.80
2022-10-05T23:19:03.834Z,6.15
2022-10-05T23:24:01.010Z,5.30
2022-10-05T23:28:59.104Z,5.78
2022-10-05T23:33:57.406Z,5.32
2022-10-05T23:38:54.975Z,6.13
2022-10-05T23:43:54.806Z,5.28
2022-10-05T23:48:53.338Z,5.85
2022-10-05T23:53:50.580Z,6.43
2022-10-05T23:58:47.939Z,5.32
